N928CJ MMGL-MMMY
Flight info
| Callsign | N928CJ |
|---|---|
| Flight time | 1h 7m |
| Altitude | 45000 |
| Route | OTOKI1B OTOKI J42 ZCL UT5 SLW SLW1B |
| Aircraft | C700/M-SBDGHM1RWXY/LB2 |
Departure
| Time | 2026-04-22 03:18 |
|---|---|
| Airport | Guadalajara International Airport (MMGL) |
Arrival
| Time | 2026-04-22 04:25 |
|---|---|
| Airport | Monterrey International Airport (MMMY) |
| Time | Latitude | Longitude | Altitude | Speed | Heading |
|---|---|---|---|---|---|
| 2026-04-22 02:53 | 20.52370 | -103.29850 | 5014 ft | 0 kts | 21° |
| 2026-04-22 03:10 | 20.52360 | -103.29854 | 5012 ft | 3 kts | 21° |
| 2026-04-22 03:10 | 20.52343 | -103.29861 | 5014 ft | 3 kts | 21° |
| 2026-04-22 03:10 | 20.52327 | -103.29867 | 5014 ft | 2 kts | 21° |
| 2026-04-22 03:11 | 20.52326 | -103.29868 | 5014 ft | 0 kts | 21° |
| 2026-04-22 03:13 | 20.52327 | -103.29867 | 5014 ft | 1 kts | 21° |
| 2026-04-22 03:13 | 20.52331 | -103.29870 | 5014 ft | 1 kts | 316° |
| 2026-04-22 03:14 | 20.52333 | -103.29872 | 5014 ft | 0 kts | 323° |
| 2026-04-22 03:14 | 20.52338 | -103.29869 | 5014 ft | 1 kts | 40° |
| 2026-04-22 03:14 | 20.52333 | -103.29863 | 5014 ft | 1 kts | 168° |
| 2026-04-22 03:14 | 20.52288 | -103.29836 | 5014 ft | 12 kts | 139° |
| 2026-04-22 03:15 | 20.52231 | -103.29765 | 5014 ft | 13 kts | 162° |
| 2026-04-22 03:15 | 20.52146 | -103.29783 | 5014 ft | 13 kts | 201° |
| 2026-04-22 03:15 | 20.52061 | -103.29779 | 5012 ft | 14 kts | 122° |
| 2026-04-22 03:15 | 20.52016 | -103.29676 | 5012 ft | 17 kts | 114° |
| 2026-04-22 03:16 | 20.51965 | -103.29555 | 5013 ft | 18 kts | 121° |
| 2026-04-22 03:16 | 20.51885 | -103.29559 | 5012 ft | 11 kts | 220° |
| 2026-04-22 03:16 | 20.51876 | -103.29567 | 5011 ft | 0 kts | 220° |
| 2026-04-22 03:16 | 20.51875 | -103.29568 | 5013 ft | 2 kts | 220° |
| 2026-04-22 03:17 | 20.51807 | -103.29634 | 5011 ft | 23 kts | 232° |
| 2026-04-22 03:17 | 20.51803 | -103.29727 | 5014 ft | 4 kts | 290° |
| 2026-04-22 03:17 | 20.51924 | -103.30040 | 5013 ft | 96 kts | 292° |
| 2026-04-22 03:17 | 20.52268 | -103.30992 | 5240 ft | 169 kts | 289° |
| 2026-04-22 03:18 | 20.52752 | -103.32277 | 6303 ft | 202 kts | 290° |
| 2026-04-22 03:18 | 20.53285 | -103.33688 | 7707 ft | 206 kts | 291° |
| 2026-04-22 03:18 | 20.53867 | -103.35142 | 8890 ft | 227 kts | 293° |
| 2026-04-22 03:18 | 20.54521 | -103.36690 | 9008 ft | 226 kts | 294° |
| 2026-04-22 03:19 | 20.55163 | -103.38201 | 9138 ft | 229 kts | 294° |
| 2026-04-22 03:19 | 20.55803 | -103.39725 | 10546 ft | 223 kts | 295° |
| 2026-04-22 03:19 | 20.56432 | -103.41227 | 11945 ft | 222 kts | 295° |
| 2026-04-22 03:19 | 20.57078 | -103.42766 | 13070 ft | 233 kts | 294° |
| 2026-04-22 03:20 | 20.57751 | -103.44374 | 14169 ft | 242 kts | 294° |
| 2026-04-22 03:20 | 20.58438 | -103.46014 | 15143 ft | 248 kts | 294° |
| 2026-04-22 03:20 | 20.59331 | -103.47587 | 16184 ft | 252 kts | 315° |
| 2026-04-22 03:20 | 20.60901 | -103.48389 | 17252 ft | 258 kts | 351° |
| 2026-04-22 03:21 | 20.62677 | -103.48057 | 18241 ft | 268 kts | 26° |
| 2026-04-22 03:21 | 20.64032 | -103.46678 | 19126 ft | 276 kts | 54° |
| 2026-04-22 03:21 | 20.64985 | -103.44872 | 19954 ft | 283 kts | 62° |
| 2026-04-22 03:21 | 20.65865 | -103.42971 | 20768 ft | 289 kts | 61° |
| 2026-04-22 03:22 | 20.66839 | -103.41074 | 21590 ft | 293 kts | 58° |
| 2026-04-22 03:22 | 20.67892 | -103.39186 | 22410 ft | 299 kts | 57° |
| 2026-04-22 03:22 | 20.68963 | -103.37225 | 23094 ft | 317 kts | 58° |
| 2026-04-22 03:22 | 20.70091 | -103.35120 | 23555 ft | 345 kts | 56° |
| 2026-04-22 03:23 | 20.71657 | -103.33075 | 23928 ft | 368 kts | 41° |
| 2026-04-22 03:23 | 20.73767 | -103.31385 | 24218 ft | 392 kts | 26° |
| 2026-04-22 03:23 | 20.76318 | -103.30256 | 24847 ft | 399 kts | 14° |
| 2026-04-22 03:23 | 20.78967 | -103.29323 | 25844 ft | 404 kts | 14° |
| 2026-04-22 03:24 | 20.81665 | -103.28377 | 26750 ft | 411 kts | 14° |
| 2026-04-22 03:24 | 20.84404 | -103.27418 | 27657 ft | 418 kts | 14° |
| 2026-04-22 03:24 | 20.87185 | -103.26440 | 28506 ft | 424 kts | 14° |
| 2026-04-22 03:24 | 20.90010 | -103.25445 | 29372 ft | 430 kts | 13° |
| 2026-04-22 03:25 | 20.92876 | -103.24436 | 30262 ft | 436 kts | 13° |
| 2026-04-22 03:25 | 20.95779 | -103.23414 | 31000 ft | 442 kts | 13° |
| 2026-04-22 03:25 | 20.98722 | -103.22378 | 31684 ft | 449 kts | 13° |
| 2026-04-22 03:25 | 21.01666 | -103.21340 | 32348 ft | 454 kts | 13° |
| 2026-04-22 03:26 | 21.04685 | -103.20276 | 32977 ft | 460 kts | 13° |
| 2026-04-22 03:26 | 21.07740 | -103.19197 | 33627 ft | 465 kts | 13° |
| 2026-04-22 03:26 | 21.10831 | -103.18106 | 34231 ft | 470 kts | 13° |
| 2026-04-22 03:26 | 21.13955 | -103.17002 | 34781 ft | 476 kts | 14° |
| 2026-04-22 03:27 | 21.17124 | -103.15882 | 35193 ft | 483 kts | 14° |
| 2026-04-22 03:27 | 21.20320 | -103.14753 | 35824 ft | 485 kts | 14° |
| 2026-04-22 03:27 | 21.23525 | -103.13618 | 36519 ft | 485 kts | 14° |
| 2026-04-22 03:27 | 21.26733 | -103.12481 | 37156 ft | 486 kts | 15° |
| 2026-04-22 03:28 | 21.29902 | -103.11359 | 37716 ft | 488 kts | 14° |
| 2026-04-22 03:28 | 21.33145 | -103.10256 | 38166 ft | 489 kts | 11° |
| 2026-04-22 03:28 | 21.36444 | -103.09399 | 38704 ft | 488 kts | 9° |
| 2026-04-22 03:28 | 21.39747 | -103.08551 | 39132 ft | 488 kts | 9° |
| 2026-04-22 03:29 | 21.43040 | -103.07687 | 39602 ft | 486 kts | 9° |
| 2026-04-22 03:29 | 21.46316 | -103.06825 | 40068 ft | 484 kts | 9° |
| 2026-04-22 03:29 | 21.49583 | -103.05976 | 40501 ft | 482 kts | 9° |
| 2026-04-22 03:29 | 21.52837 | -103.05132 | 40901 ft | 480 kts | 9° |
| 2026-04-22 03:30 | 21.56034 | -103.04298 | 41278 ft | 479 kts | 9° |
| 2026-04-22 03:30 | 21.59264 | -103.03452 | 41633 ft | 477 kts | 9° |
| 2026-04-22 03:30 | 21.62485 | -103.02610 | 41989 ft | 476 kts | 8° |
| 2026-04-22 03:30 | 21.65700 | -103.01772 | 42298 ft | 475 kts | 8° |
| 2026-04-22 03:31 | 21.68905 | -103.00934 | 42600 ft | 474 kts | 8° |
| 2026-04-22 03:31 | 21.72101 | -103.00098 | 42932 ft | 471 kts | 8° |
| 2026-04-22 03:31 | 21.75281 | -102.99265 | 43166 ft | 471 kts | 8° |
| 2026-04-22 03:31 | 21.78462 | -102.98433 | 43434 ft | 470 kts | 8° |
| 2026-04-22 03:32 | 21.81633 | -102.97604 | 43695 ft | 468 kts | 8° |
| 2026-04-22 03:32 | 21.84795 | -102.96774 | 43924 ft | 467 kts | 8° |
| 2026-04-22 03:32 | 21.87911 | -102.95957 | 44136 ft | 466 kts | 8° |
| 2026-04-22 03:32 | 21.91058 | -102.95132 | 44335 ft | 466 kts | 7° |
| 2026-04-22 03:33 | 21.94206 | -102.94307 | 44546 ft | 465 kts | 7° |
| 2026-04-22 03:33 | 21.97347 | -102.93483 | 44740 ft | 464 kts | 7° |
| 2026-04-22 03:33 | 22.00481 | -102.92664 | 44882 ft | 463 kts | 7° |
| 2026-04-22 03:33 | 22.03615 | -102.91847 | 44980 ft | 464 kts | 7° |
| 2026-04-22 03:34 | 22.06752 | -102.91025 | 45089 ft | 464 kts | 7° |
| 2026-04-22 03:34 | 22.09898 | -102.90200 | 45090 ft | 467 kts | 7° |
| 2026-04-22 03:34 | 22.16241 | -102.88524 | 45096 ft | 472 kts | 7° |
| 2026-04-22 03:35 | 22.22603 | -102.86846 | 45107 ft | 476 kts | 7° |
| 2026-04-22 03:35 | 22.29073 | -102.85136 | 45105 ft | 481 kts | 7° |
| 2026-04-22 03:36 | 22.35612 | -102.83410 | 45114 ft | 486 kts | 7° |
| 2026-04-22 03:36 | 22.42183 | -102.81673 | 45112 ft | 485 kts | 7° |
| 2026-04-22 03:37 | 22.48701 | -102.79949 | 45103 ft | 480 kts | 7° |
| 2026-04-22 03:37 | 22.55146 | -102.78246 | 45104 ft | 481 kts | 7° |
| 2026-04-22 03:38 | 22.61677 | -102.76515 | 45159 ft | 485 kts | 7° |
| 2026-04-22 03:38 | 22.68201 | -102.74782 | 45215 ft | 480 kts | 7° |
| 2026-04-22 03:39 | 22.74666 | -102.73069 | 45261 ft | 478 kts | 7° |
| 2026-04-22 03:39 | 22.81104 | -102.71359 | 45320 ft | 481 kts | 7° |
| 2026-04-22 03:40 | 22.87603 | -102.69487 | 45320 ft | 490 kts | 14° |
| 2026-04-22 03:40 | 22.93735 | -102.66096 | 45326 ft | 498 kts | 25° |
| 2026-04-22 03:41 | 22.99671 | -102.62244 | 45302 ft | 496 kts | 25° |
| 2026-04-22 03:41 | 23.05547 | -102.58434 | 45231 ft | 494 kts | 25° |
| 2026-04-22 03:42 | 23.11438 | -102.54605 | 45162 ft | 493 kts | 25° |
| 2026-04-22 03:42 | 23.17348 | -102.50765 | 45086 ft | 496 kts | 25° |
| 2026-04-22 03:43 | 23.23287 | -102.46897 | 45036 ft | 499 kts | 25° |
| 2026-04-22 03:43 | 23.29211 | -102.43037 | 45025 ft | 499 kts | 25° |
| 2026-04-22 03:44 | 23.35140 | -102.39169 | 45026 ft | 495 kts | 25° |
| 2026-04-22 03:44 | 23.41028 | -102.35325 | 45020 ft | 492 kts | 25° |
| 2026-04-22 03:45 | 23.46916 | -102.31477 | 45012 ft | 495 kts | 25° |
| 2026-04-22 03:45 | 23.52840 | -102.27600 | 45016 ft | 498 kts | 25° |
| 2026-04-22 03:46 | 23.58745 | -102.23732 | 45037 ft | 498 kts | 25° |
| 2026-04-22 03:46 | 23.64674 | -102.19842 | 45014 ft | 496 kts | 24° |
| 2026-04-22 03:47 | 23.70572 | -102.15966 | 45012 ft | 494 kts | 24° |
| 2026-04-22 03:47 | 23.76470 | -102.12089 | 45012 ft | 496 kts | 24° |
| 2026-04-22 03:48 | 23.82396 | -102.08186 | 45013 ft | 499 kts | 25° |
| 2026-04-22 03:48 | 23.88313 | -102.04286 | 45016 ft | 500 kts | 25° |
| 2026-04-22 03:49 | 23.94250 | -102.00366 | 45019 ft | 497 kts | 24° |
| 2026-04-22 03:49 | 24.00148 | -101.96471 | 45013 ft | 494 kts | 24° |
| 2026-04-22 03:50 | 24.06050 | -101.92576 | 45015 ft | 497 kts | 24° |
| 2026-04-22 03:50 | 24.11948 | -101.88674 | 45029 ft | 500 kts | 24° |
| 2026-04-22 03:51 | 24.17906 | -101.84729 | 45033 ft | 499 kts | 24° |
| 2026-04-22 03:51 | 24.23834 | -101.80801 | 45031 ft | 496 kts | 24° |
| 2026-04-22 03:52 | 24.29729 | -101.76891 | 45028 ft | 494 kts | 24° |
| 2026-04-22 03:52 | 24.35621 | -101.72979 | 45039 ft | 497 kts | 24° |
| 2026-04-22 03:53 | 24.41513 | -101.69061 | 45043 ft | 500 kts | 24° |
| 2026-04-22 03:53 | 24.47466 | -101.65098 | 45040 ft | 500 kts | 25° |
| 2026-04-22 03:54 | 24.53401 | -101.61142 | 45040 ft | 498 kts | 25° |
| 2026-04-22 03:54 | 24.59314 | -101.57198 | 45052 ft | 497 kts | 25° |
| 2026-04-22 03:55 | 24.65212 | -101.53258 | 45050 ft | 496 kts | 25° |
| 2026-04-22 03:55 | 24.71083 | -101.49335 | 45056 ft | 498 kts | 24° |
| 2026-04-22 03:56 | 24.77019 | -101.45360 | 45070 ft | 501 kts | 25° |
| 2026-04-22 03:56 | 24.82986 | -101.41363 | 44405 ft | 502 kts | 25° |
| 2026-04-22 03:57 | 24.85944 | -101.39374 | 43765 ft | 493 kts | 25° |
| 2026-04-22 03:57 | 24.88843 | -101.37422 | 43138 ft | 484 kts | 25° |
| 2026-04-22 03:57 | 24.91692 | -101.35509 | 42529 ft | 477 kts | 24° |
| 2026-04-22 03:57 | 24.94517 | -101.33620 | 41916 ft | 475 kts | 24° |
| 2026-04-22 03:58 | 24.97316 | -101.31743 | 41306 ft | 481 kts | 25° |
| 2026-04-22 03:58 | 25.00214 | -101.29794 | 40649 ft | 494 kts | 25° |
| 2026-04-22 03:58 | 25.03179 | -101.27797 | 39985 ft | 505 kts | 25° |
| 2026-04-22 03:58 | 25.06189 | -101.25764 | 39309 ft | 509 kts | 26° |
| 2026-04-22 03:59 | 25.09211 | -101.23724 | 38623 ft | 510 kts | 26° |
| 2026-04-22 03:59 | 25.12236 | -101.21684 | 37923 ft | 508 kts | 26° |
| 2026-04-22 03:59 | 25.15243 | -101.19656 | 37248 ft | 505 kts | 25° |
| 2026-04-22 03:59 | 25.18228 | -101.17640 | 36594 ft | 501 kts | 25° |
| 2026-04-22 04:00 | 25.21156 | -101.15662 | 35948 ft | 500 kts | 25° |
| 2026-04-22 04:00 | 25.24126 | -101.13657 | 35293 ft | 501 kts | 25° |
| 2026-04-22 04:00 | 25.27103 | -101.11644 | 34623 ft | 501 kts | 25° |
| 2026-04-22 04:00 | 25.30075 | -101.09631 | 33934 ft | 500 kts | 25° |
| 2026-04-22 04:01 | 25.33033 | -101.07626 | 33306 ft | 497 kts | 25° |
| 2026-04-22 04:01 | 25.35971 | -101.05636 | 32679 ft | 496 kts | 25° |
| 2026-04-22 04:01 | 25.38927 | -101.03638 | 32031 ft | 500 kts | 25° |
| 2026-04-22 04:01 | 25.41906 | -101.01618 | 31378 ft | 503 kts | 25° |
| 2026-04-22 04:02 | 25.44804 | -100.99433 | 30722 ft | 508 kts | 32° |
| 2026-04-22 04:02 | 25.47410 | -100.96824 | 30038 ft | 500 kts | 40° |
| 2026-04-22 04:02 | 25.49590 | -100.93977 | 29388 ft | 484 kts | 49° |
| 2026-04-22 04:02 | 25.51397 | -100.90895 | 28763 ft | 473 kts | 57° |
| 2026-04-22 04:03 | 25.52821 | -100.87629 | 28146 ft | 471 kts | 65° |
| 2026-04-22 04:03 | 25.53865 | -100.84184 | 27529 ft | 474 kts | 73° |
| 2026-04-22 04:03 | 25.54519 | -100.80606 | 26893 ft | 474 kts | 81° |
| 2026-04-22 04:03 | 25.54816 | -100.76989 | 26262 ft | 469 kts | 85° |
| 2026-04-22 04:04 | 25.54890 | -100.73401 | 25631 ft | 463 kts | 91° |
| 2026-04-22 04:04 | 25.54786 | -100.69858 | 25017 ft | 457 kts | 92° |
| 2026-04-22 04:04 | 25.54736 | -100.66364 | 24408 ft | 452 kts | 89° |
| 2026-04-22 04:04 | 25.54816 | -100.62954 | 23811 ft | 447 kts | 88° |
| 2026-04-22 04:05 | 25.54892 | -100.59532 | 23160 ft | 441 kts | 89° |
| 2026-04-22 04:05 | 25.54889 | -100.56167 | 22565 ft | 434 kts | 90° |
| 2026-04-22 04:05 | 25.54873 | -100.52842 | 21987 ft | 431 kts | 90° |
| 2026-04-22 04:05 | 25.54898 | -100.49530 | 21422 ft | 429 kts | 89° |
| 2026-04-22 04:06 | 25.54936 | -100.46234 | 20855 ft | 427 kts | 89° |
| 2026-04-22 04:06 | 25.54951 | -100.42972 | 20298 ft | 420 kts | 90° |
| 2026-04-22 04:06 | 25.54955 | -100.39757 | 19737 ft | 415 kts | 90° |
| 2026-04-22 04:06 | 25.54968 | -100.36590 | 19202 ft | 408 kts | 90° |
| 2026-04-22 04:07 | 25.54986 | -100.33518 | 18690 ft | 401 kts | 90° |
| 2026-04-22 04:07 | 25.55144 | -100.30502 | 18533 ft | 383 kts | 81° |
| 2026-04-22 04:07 | 25.55769 | -100.27720 | 18328 ft | 363 kts | 70° |
| 2026-04-22 04:07 | 25.56770 | -100.25210 | 18110 ft | 352 kts | 59° |
| 2026-04-22 04:08 | 25.58111 | -100.22961 | 18106 ft | 353 kts | 50° |
| 2026-04-22 04:08 | 25.59796 | -100.20960 | 18117 ft | 356 kts | 39° |
| 2026-04-22 04:08 | 25.61758 | -100.19305 | 18116 ft | 352 kts | 28° |
| 2026-04-22 04:08 | 25.63829 | -100.17877 | 18123 ft | 351 kts | 27° |
| 2026-04-22 04:09 | 25.65869 | -100.16454 | 18123 ft | 351 kts | 28° |
| 2026-04-22 04:09 | 25.67933 | -100.15006 | 18126 ft | 351 kts | 28° |
| 2026-04-22 04:09 | 25.70002 | -100.13563 | 18128 ft | 352 kts | 27° |
| 2026-04-22 04:09 | 25.72077 | -100.12117 | 18128 ft | 352 kts | 27° |
| 2026-04-22 04:10 | 25.74150 | -100.10670 | 18128 ft | 352 kts | 27° |
| 2026-04-22 04:10 | 25.76226 | -100.09219 | 18049 ft | 355 kts | 27° |
| 2026-04-22 04:10 | 25.78336 | -100.07746 | 17502 ft | 359 kts | 28° |
| 2026-04-22 04:10 | 25.80426 | -100.06281 | 16853 ft | 352 kts | 28° |
| 2026-04-22 04:11 | 25.82471 | -100.04847 | 16285 ft | 342 kts | 27° |
| 2026-04-22 04:11 | 25.84433 | -100.03475 | 15748 ft | 334 kts | 27° |
| 2026-04-22 04:11 | 25.86392 | -100.02161 | 15216 ft | 322 kts | 20° |
| 2026-04-22 04:11 | 25.88477 | -100.01464 | 14714 ft | 307 kts | 4° |
| 2026-04-22 04:12 | 25.90552 | -100.01375 | 14233 ft | 292 kts | 349° |
| 2026-04-22 04:12 | 25.92487 | -100.01825 | 13751 ft | 275 kts | 336° |
| 2026-04-22 04:12 | 25.94147 | -100.02688 | 13311 ft | 254 kts | 324° |
| 2026-04-22 04:12 | 25.95499 | -100.03833 | 12929 ft | 237 kts | 313° |
| 2026-04-22 04:13 | 25.96550 | -100.05167 | 12584 ft | 223 kts | 303° |
| 2026-04-22 04:13 | 25.97369 | -100.06599 | 12270 ft | 218 kts | 300° |
| 2026-04-22 04:13 | 25.98170 | -100.08008 | 11951 ft | 220 kts | 301° |
| 2026-04-22 04:13 | 25.99000 | -100.09454 | 11617 ft | 224 kts | 301° |
| 2026-04-22 04:14 | 25.99837 | -100.10920 | 11274 ft | 225 kts | 301° |
| 2026-04-22 04:14 | 26.00675 | -100.12391 | 10931 ft | 224 kts | 301° |
| 2026-04-22 04:14 | 26.01506 | -100.13850 | 10601 ft | 223 kts | 301° |
| 2026-04-22 04:14 | 26.02334 | -100.15304 | 10246 ft | 222 kts | 301° |
| 2026-04-22 04:15 | 26.03103 | -100.16792 | 9908 ft | 222 kts | 293° |
| 2026-04-22 04:15 | 26.03500 | -100.18391 | 9612 ft | 206 kts | 279° |
| 2026-04-22 04:15 | 26.03534 | -100.19887 | 9338 ft | 188 kts | 266° |
| 2026-04-22 04:15 | 26.03285 | -100.21263 | 9098 ft | 178 kts | 254° |
| 2026-04-22 04:16 | 26.02791 | -100.22519 | 8844 ft | 179 kts | 242° |
| 2026-04-22 04:16 | 26.01082 | -100.24597 | 8345 ft | 187 kts | 215° |
| 2026-04-22 04:16 | 25.99973 | -100.25342 | 8074 ft | 186 kts | 210° |
| 2026-04-22 04:17 | 25.98868 | -100.26084 | 7799 ft | 185 kts | 210° |
| 2026-04-22 04:17 | 25.97785 | -100.26817 | 7519 ft | 185 kts | 208° |
| 2026-04-22 04:17 | 25.96689 | -100.27553 | 7243 ft | 183 kts | 208° |
| 2026-04-22 04:17 | 25.95605 | -100.28284 | 6971 ft | 182 kts | 207° |
| 2026-04-22 04:18 | 25.94528 | -100.29006 | 6699 ft | 181 kts | 207° |
| 2026-04-22 04:18 | 25.93451 | -100.29730 | 6427 ft | 182 kts | 206° |
| 2026-04-22 04:18 | 25.92370 | -100.30449 | 6152 ft | 179 kts | 205° |
| 2026-04-22 04:18 | 25.91212 | -100.30850 | 5884 ft | 172 kts | 181° |
| 2026-04-22 04:19 | 25.90043 | -100.30774 | 5634 ft | 167 kts | 163° |
| 2026-04-22 04:19 | 25.89019 | -100.30297 | 5394 ft | 157 kts | 145° |
| 2026-04-22 04:19 | 25.88211 | -100.29508 | 5163 ft | 154 kts | 129° |
| 2026-04-22 04:19 | 25.87639 | -100.28514 | 4936 ft | 152 kts | 120° |
| 2026-04-22 04:20 | 25.87091 | -100.27516 | 4708 ft | 151 kts | 121° |
| 2026-04-22 04:20 | 25.86543 | -100.26523 | 4490 ft | 151 kts | 121° |
| 2026-04-22 04:20 | 25.85991 | -100.25518 | 4267 ft | 154 kts | 121° |
| 2026-04-22 04:20 | 25.85429 | -100.24498 | 4032 ft | 155 kts | 121° |
| 2026-04-22 04:21 | 25.84880 | -100.23497 | 3809 ft | 146 kts | 121° |
| 2026-04-22 04:21 | 25.84403 | -100.22628 | 3638 ft | 122 kts | 121° |
| 2026-04-22 04:21 | 25.83966 | -100.21833 | 3462 ft | 122 kts | 121° |
| 2026-04-22 04:21 | 25.83520 | -100.21016 | 3293 ft | 126 kts | 121° |
| 2026-04-22 04:22 | 25.83064 | -100.20185 | 3107 ft | 125 kts | 121° |
| 2026-04-22 04:22 | 25.82630 | -100.19392 | 2930 ft | 117 kts | 122° |
| 2026-04-22 04:22 | 25.82196 | -100.18615 | 2773 ft | 121 kts | 122° |
| 2026-04-22 04:22 | 25.81755 | -100.17820 | 2626 ft | 123 kts | 120° |
| 2026-04-22 04:23 | 25.81342 | -100.16991 | 2468 ft | 124 kts | 119° |
| 2026-04-22 04:23 | 25.80904 | -100.16189 | 2336 ft | 122 kts | 122° |
| 2026-04-22 04:23 | 25.80460 | -100.15396 | 2182 ft | 120 kts | 120° |
| 2026-04-22 04:23 | 25.80036 | -100.14604 | 2019 ft | 119 kts | 122° |
| 2026-04-22 04:24 | 25.79586 | -100.13828 | 1866 ft | 120 kts | 122° |
| 2026-04-22 04:24 | 25.79157 | -100.13032 | 1697 ft | 121 kts | 120° |
| 2026-04-22 04:24 | 25.78723 | -100.12246 | 1515 ft | 118 kts | 122° |
| 2026-04-22 04:24 | 25.78289 | -100.11466 | 1307 ft | 117 kts | 123° |
| 2026-04-22 04:25 | 25.77887 | -100.10754 | 1265 ft | 83 kts | 121° |
| 2026-04-22 04:25 | 25.77670 | -100.10364 | 1260 ft | 51 kts | 121° |
| 2026-04-22 04:25 | 25.77503 | -100.10072 | 1254 ft | 28 kts | 123° |
| 2026-04-22 04:25 | 25.77439 | -100.09959 | 1252 ft | 0 kts | 121° |
| 2026-04-22 04:26 | 25.77428 | -100.09938 | 1251 ft | 13 kts | 118° |
| 2026-04-22 04:26 | 25.77350 | -100.09786 | 1254 ft | 23 kts | 121° |
| 2026-04-22 04:26 | 25.77210 | -100.09721 | 1248 ft | 25 kts | 212° |
| 2026-04-22 04:26 | 25.77159 | -100.09828 | 1257 ft | 15 kts | 292° |
| 2026-04-22 04:27 | 25.77215 | -100.09934 | 1258 ft | 17 kts | 301° |
| 2026-04-22 04:27 | 25.77282 | -100.10056 | 1255 ft | 20 kts | 302° |
| 2026-04-22 04:27 | 25.77358 | -100.10194 | 1263 ft | 22 kts | 301° |
| 2026-04-22 04:27 | 25.77443 | -100.10349 | 1263 ft | 25 kts | 301° |
| 2026-04-22 04:28 | 25.77534 | -100.10516 | 1269 ft | 26 kts | 301° |
| 2026-04-22 04:28 | 25.77569 | -100.10581 | 1271 ft | 1 kts | 301° |
| 2026-04-22 04:28 | 25.77604 | -100.10645 | 1271 ft | 19 kts | 301° |
| 2026-04-22 04:28 | 25.77639 | -100.10710 | 1270 ft | 0 kts | 301° |
| 2026-04-22 04:29 | 25.77643 | -100.10717 | 1269 ft | 7 kts | 302° |
| 2026-04-22 04:29 | 25.77703 | -100.10822 | 1267 ft | 22 kts | 302° |
| 2026-04-22 04:29 | 25.77790 | -100.10979 | 1267 ft | 26 kts | 301° |
| 2026-04-22 04:29 | 25.77832 | -100.11086 | 1268 ft | 0 kts | 266° |
| 2026-04-22 04:30 | 25.77832 | -100.11087 | 1268 ft | 1 kts | 266° |
| 2026-04-22 04:30 | 25.77832 | -100.11166 | 1268 ft | 8 kts | 275° |
| 2026-04-22 04:31 | 25.77833 | -100.11205 | 1269 ft | 1 kts | 245° |
| 2026-04-22 04:31 | 25.77829 | -100.11210 | 1269 ft | 1 kts | 227° |
| 2026-04-22 04:31 | 25.77823 | -100.11215 | 1269 ft | 1 kts | 217° |
| 2026-04-22 04:31 | 25.77821 | -100.11217 | 1269 ft | 0 kts | 215° |
| 2026-04-22 04:32 | 25.77820 | -100.11217 | 1269 ft | 0 kts | 214° |